createdAt,value
2022-08-14T00:02:27.880Z,100.00
2022-08-14T00:05:01.636Z,100.00
2022-08-14T00:07:30.437Z,100.00
2022-08-14T00:10:49.399Z,100.00
2022-08-14T00:12:56.432Z,100.00
2022-08-14T00:15:29.687Z,100.00
2022-08-14T00:18:07.008Z,100.00
2022-08-14T00:20:43.211Z,100.00
2022-08-14T00:23:17.194Z,100.00
2022-08-14T00:25:58.651Z,100.00
2022-08-14T00:28:36.928Z,100.00
2022-08-14T00:31:08.201Z,100.00
2022-08-14T00:33:51.009Z,100.00
2022-08-14T00:36:39.512Z,100.00
2022-08-14T00:39:39.569Z,100.00
2022-08-14T00:42:21.285Z,100.00
2022-08-14T00:45:00.519Z,100.00
2022-08-14T00:47:33.642Z,100.00
2022-08-14T00:50:33.204Z,100.00
2022-08-14T00:53:10.524Z,100.00
2022-08-14T00:55:41.396Z,100.00
2022-08-14T00:58:33.137Z,100.00
2022-08-14T01:01:03.755Z,100.00
2022-08-14T01:03:39.537Z,100.00
2022-08-14T01:06:18.815Z,100.00
2022-08-14T01:08:58.306Z,100.00
2022-08-14T01:11:35.540Z,100.00
2022-08-14T01:14:25.538Z,100.00
2022-08-14T01:16:55.536Z,100.00
2022-08-14T01:19:44.919Z,100.00
2022-08-14T01:22:19.211Z,100.00
2022-08-14T01:24:50.882Z,100.00
2022-08-14T01:27:22.424Z,100.00
2022-08-14T01:30:00.840Z,100.00
2022-08-14T01:32:35.622Z,100.00
2022-08-14T01:35:19.130Z,100.00
2022-08-14T01:38:01.653Z,100.00
2022-08-14T01:40:40.752Z,100.00
2022-08-14T01:43:15.728Z,100.00
2022-08-14T01:45:48.918Z,100.00
2022-08-14T01:48:30.464Z,100.00
2022-08-14T01:51:02.807Z,100.00
2022-08-14T01:53:35.667Z,100.00
2022-08-14T01:56:11.934Z,100.00
2022-08-14T01:58:58.177Z,100.00
2022-08-14T02:01:27.424Z,100.00
2022-08-14T02:04:01.883Z,100.00
2022-08-14T02:06:37.444Z,100.00
2022-08-14T02:09:19.309Z,100.00
2022-08-14T02:11:54.634Z,100.00
2022-08-14T02:14:31.446Z,100.00
2022-08-14T02:17:01.436Z,100.00
2022-08-14T02:19:37.815Z,100.00
2022-08-14T02:22:06.842Z,100.00
2022-08-14T02:24:44.990Z,100.00
2022-08-14T02:28:24.386Z,100.00
2022-08-14T02:30:05.245Z,100.00
2022-08-14T02:32:37.222Z,100.00
2022-08-14T02:35:18.569Z,100.00
2022-08-14T02:37:49.281Z,100.00
2022-08-14T02:40:32.410Z,100.00
2022-08-14T02:43:07.829Z,100.00
2022-08-14T02:45:44.557Z,100.00
2022-08-14T02:49:03.484Z,100.00
2022-08-14T02:51:09.126Z,100.00
2022-08-14T02:53:45.512Z,100.00
2022-08-14T02:56:30.224Z,100.00
2022-08-14T02:59:10.771Z,100.00
2022-08-14T03:01:43.468Z,100.00
2022-08-14T03:04:20.303Z,100.00
2022-08-14T03:07:06.788Z,100.00
2022-08-14T03:10:27.074Z,100.00
2022-08-14T03:12:33.400Z,100.00
2022-08-14T03:15:16.147Z,100.00
2022-08-14T03:17:56.605Z,100.00
2022-08-14T03:20:43.448Z,100.00
2022-08-14T03:23:17.919Z,100.00
2022-08-14T03:25:53.808Z,100.00
2022-08-14T03:28:33.249Z,100.00
2022-08-14T03:31:08.341Z,100.00
2022-08-14T03:33:42.217Z,100.00
2022-08-14T03:37:50.734Z,100.00
2022-08-14T03:39:16.159Z,100.00
2022-08-14T03:41:55.272Z,100.00
2022-08-14T03:45:19.079Z,100.00
2022-08-14T03:47:28.643Z,100.00
2022-08-14T03:50:21.553Z,100.00
2022-08-14T03:53:02.276Z,100.00
2022-08-14T03:55:31.502Z,100.00
2022-08-14T03:58:01.034Z,100.00
2022-08-14T04:00:42.920Z,100.00
2022-08-14T04:03:24.118Z,100.00
2022-08-14T04:05:55.953Z,100.00
2022-08-14T04:08:30.762Z,100.00
2022-08-14T04:11:02.810Z,100.00
2022-08-14T04:13:39.314Z,100.00
2022-08-14T04:16:12.658Z,100.00
2022-08-14T04:18:47.336Z,100.00
2022-08-14T04:21:18.057Z,100.00
2022-08-14T04:23:57.153Z,100.00
2022-08-14T04:26:42.283Z,100.00
2022-08-14T04:29:14.453Z,100.00
2022-08-14T04:33:00.207Z,100.00
2022-08-14T04:34:41.919Z,100.00
2022-08-14T04:37:28.542Z,100.00
2022-08-14T04:40:15.524Z,100.00
2022-08-14T04:43:02.149Z,100.00
2022-08-14T04:45:40.814Z,100.00
2022-08-14T04:48:40.058Z,100.00
2022-08-14T04:51:04.318Z,100.00
2022-08-14T04:53:34.737Z,100.00
2022-08-14T04:56:06.197Z,100.00
2022-08-14T04:58:39.536Z,100.00
2022-08-14T05:01:12.928Z,100.00
2022-08-14T05:03:54.791Z,100.00
2022-08-14T05:06:37.593Z,100.00
2022-08-14T05:09:10.512Z,100.00
2022-08-14T05:11:44.322Z,100.00
2022-08-14T05:14:16.746Z,100.00
2022-08-14T05:17:02.641Z,100.00
2022-08-14T05:19:36.473Z,100.00
2022-08-14T05:22:19.783Z,100.00
2022-08-14T05:24:51.221Z,100.00
2022-08-14T05:27:23.054Z,100.00
2022-08-14T05:29:56.754Z,100.00
2022-08-14T05:32:28.307Z,100.00
2022-08-14T05:35:00.018Z,100.00
2022-08-14T05:37:31.197Z,100.00
2022-08-14T05:40:01.087Z,100.00
2022-08-14T05:42:34.005Z,100.00
2022-08-14T05:45:10.946Z,100.00
2022-08-14T05:47:43.166Z,100.00
2022-08-14T05:50:17.588Z,100.00
2022-08-14T05:52:50.331Z,100.00
2022-08-14T05:55:22.885Z,100.00
2022-08-14T05:57:59.663Z,100.00
2022-08-14T06:00:37.142Z,100.00
2022-08-14T06:03:12.370Z,100.00
2022-08-14T06:05:44.043Z,100.00
2022-08-14T06:08:31.319Z,100.00
2022-08-14T06:11:20.308Z,100.00
2022-08-14T06:13:58.598Z,100.00
2022-08-14T06:16:27.377Z,100.00
2022-08-14T06:19:06.539Z,100.00
2022-08-14T06:21:58.448Z,100.00
2022-08-14T06:24:34.665Z,100.00
2022-08-14T06:27:06.349Z,100.00
2022-08-14T06:29:39.767Z,100.00
2022-08-14T06:32:48.697Z,100.00
2022-08-14T06:35:12.167Z,100.00
2022-08-14T06:37:59.373Z,100.00
2022-08-14T06:40:34.355Z,100.00
2022-08-14T06:43:06.830Z,100.00
2022-08-14T06:45:40.988Z,100.00
2022-08-14T06:48:21.528Z,100.00
2022-08-14T06:50:53.823Z,100.00
2022-08-14T06:53:28.216Z,100.00
2022-08-14T06:56:01.944Z,100.00
2022-08-14T06:58:32.529Z,100.00
2022-08-14T07:01:27.023Z,100.00
2022-08-14T07:04:22.730Z,100.00
2022-08-14T07:06:55.465Z,100.00
2022-08-14T07:09:44.372Z,100.00
2022-08-14T07:12:54.648Z,100.00
2022-08-14T07:15:09.694Z,100.00
2022-08-14T07:17:46.716Z,100.00
2022-08-14T07:20:30.992Z,100.00
2022-08-14T07:23:05.356Z,100.00
2022-08-14T07:25:39.698Z,100.00
2022-08-14T07:28:20.686Z,100.00
2022-08-14T07:30:51.986Z,100.00
2022-08-14T07:33:29.961Z,100.00
2022-08-14T07:36:01.940Z,100.00
2022-08-14T07:38:37.936Z,100.00
2022-08-14T07:41:14.661Z,100.00
2022-08-14T07:43:55.929Z,100.00
2022-08-14T07:46:28.333Z,100.00
2022-08-14T08:02:32.788Z,100.00
2022-08-14T08:05:03.381Z,97.27
2022-08-14T08:07:34.353Z,97.81
2022-08-14T08:10:46.017Z,96.85
2022-08-14T08:13:22.208Z,95.03
2022-08-14T08:15:57.377Z,94.27
2022-08-14T08:18:29.508Z,93.01
2022-08-14T08:21:00.550Z,92.01
2022-08-14T08:23:40.770Z,92.85
2022-08-14T08:26:12.879Z,91.23
2022-08-14T08:28:43.881Z,92.63
2022-08-14T08:31:13.791Z,88.27
2022-08-14T08:33:46.971Z,85.72
2022-08-14T08:36:19.159Z,86.48
2022-08-14T08:39:17.568Z,83.15
2022-08-14T08:41:45.740Z,83.98
2022-08-14T08:44:32.000Z,84.65
2022-08-14T08:47:06.753Z,83.26
2022-08-14T08:49:53.043Z,82.86
2022-08-14T08:52:31.553Z,81.73
2022-08-14T08:55:04.565Z,80.03
2022-08-14T08:57:37.606Z,77.63
2022-08-14T09:00:24.466Z,76.27
2022-08-14T09:02:57.709Z,75.61
2022-08-14T09:05:29.012Z,77.58
2022-08-14T09:08:30.179Z,75.56
2022-08-14T09:11:18.958Z,77.49
2022-08-14T09:13:52.544Z,76.84
2022-08-14T09:16:25.015Z,77.10
2022-08-14T09:18:55.295Z,77.48
2022-08-14T09:21:31.145Z,76.40
2022-08-14T09:24:28.589Z,74.99
2022-08-14T09:26:51.961Z,77.24
2022-08-14T09:29:23.047Z,78.89
2022-08-14T09:31:58.230Z,72.82
2022-08-14T09:34:59.248Z,75.77
2022-08-14T09:37:44.826Z,77.17
2022-08-14T09:40:29.482Z,78.34
2022-08-14T09:43:13.245Z,79.32
2022-08-14T09:45:52.901Z,74.71
2022-08-14T09:48:30.098Z,76.58
2022-08-14T09:54:18.399Z,68.49
2022-08-14T09:56:45.683Z,63.53
2022-08-14T09:59:17.771Z,61.48
2022-08-14T10:01:52.857Z,59.82
2022-08-14T10:04:34.656Z,58.82
2022-08-14T10:07:08.480Z,59.07
2022-08-14T10:09:59.792Z,60.81
2022-08-14T10:12:52.923Z,61.50
2022-08-14T10:15:29.758Z,62.94
2022-08-14T10:18:17.274Z,63.40
2022-08-14T10:20:57.810Z,63.51
2022-08-14T10:23:43.769Z,63.74
2022-08-14T10:26:22.722Z,64.62
2022-08-14T10:29:23.322Z,53.99
2022-08-14T10:35:54.241Z,53.50
2022-08-14T10:38:32.358Z,53.17
2022-08-14T10:41:14.659Z,49.49
2022-08-14T10:43:45.897Z,44.74
2022-08-14T10:47:36.810Z,45.84
2022-08-14T10:49:17.641Z,46.99
2022-08-14T10:52:04.223Z,49.05
2022-08-14T10:54:40.249Z,47.94
2022-08-14T10:57:18.907Z,49.37
2022-08-14T10:59:52.030Z,52.41
2022-08-14T11:02:45.203Z,54.71
2022-08-14T11:05:20.248Z,52.16
2022-08-14T11:08:01.808Z,52.99
2022-08-14T11:10:47.672Z,53.74
2022-08-14T11:13:30.013Z,55.07
2022-08-14T11:16:01.929Z,56.50
2022-08-14T11:19:04.905Z,47.81
2022-08-14T11:21:45.620Z,48.83
2022-08-14T11:24:54.383Z,50.75
2022-08-14T11:27:11.558Z,51.24
2022-08-14T11:29:48.423Z,51.70
2022-08-14T11:32:22.165Z,49.78
2022-08-14T11:34:53.600Z,50.18
2022-08-14T11:37:33.822Z,51.11
2022-08-14T11:40:24.275Z,48.35
2022-08-14T11:42:59.612Z,46.02
2022-08-14T11:45:37.136Z,45.90
2022-08-14T11:49:02.933Z,44.98
2022-08-14T11:51:23.670Z,45.93
2022-08-14T11:53:55.771Z,45.93
2022-08-14T11:56:30.645Z,47.06
2022-08-14T11:58:59.874Z,46.14
2022-08-14T12:01:32.734Z,45.49
2022-08-14T12:04:21.672Z,42.36
2022-08-14T12:07:10.155Z,41.07
2022-08-14T12:09:48.576Z,40.49
2022-08-14T12:12:35.793Z,40.77
2022-08-14T12:15:08.240Z,40.57
2022-08-14T12:17:50.630Z,40.89
2022-08-14T12:20:32.217Z,40.16
2022-08-14T12:23:05.261Z,40.25
2022-08-14T12:25:36.342Z,40.47
2022-08-14T12:28:33.921Z,40.76
2022-08-14T12:31:24.978Z,39.98
2022-08-14T12:34:10.949Z,39.25
2022-08-14T12:36:40.644Z,38.93
2022-08-14T12:39:39.715Z,39.48
2022-08-14T12:42:27.286Z,39.68
2022-08-14T12:45:04.913Z,40.25
2022-08-14T12:47:34.358Z,41.16
2022-08-14T12:50:05.232Z,42.02
2022-08-14T12:53:02.032Z,42.69
2022-08-14T12:56:00.418Z,43.15
2022-08-14T12:58:29.441Z,43.06
2022-08-14T13:01:17.144Z,42.30
2022-08-14T13:03:49.064Z,42.29
2022-08-14T13:06:25.113Z,42.64
2022-08-14T13:09:00.085Z,42.40
2022-08-14T13:11:41.108Z,42.70
2022-08-14T13:14:17.602Z,41.70
2022-08-14T13:16:50.566Z,41.35
2022-08-14T13:19:21.056Z,40.69
2022-08-14T13:22:05.622Z,40.70
2022-08-14T13:24:40.331Z,41.40
2022-08-14T13:27:11.257Z,41.63
2022-08-14T13:29:43.770Z,41.92
2022-08-14T13:32:16.755Z,42.54
2022-08-14T13:34:48.797Z,42.23
2022-08-14T13:37:22.867Z,42.09
2022-08-14T13:39:57.291Z,41.91
2022-08-14T13:42:30.151Z,41.22
2022-08-14T13:45:01.768Z,40.73
2022-08-14T13:47:33.411Z,40.19
2022-08-14T13:50:09.183Z,40.38
2022-08-14T13:52:52.868Z,40.66
2022-08-14T13:55:25.483Z,41.24
2022-08-14T13:58:03.192Z,40.75
2022-08-14T14:00:51.668Z,40.94
2022-08-14T14:03:30.410Z,41.39
2022-08-14T14:06:03.637Z,41.89
2022-08-14T14:08:46.303Z,42.04
2022-08-14T14:11:19.623Z,42.14
2022-08-14T14:13:50.386Z,42.18
2022-08-14T14:16:30.095Z,41.62
2022-08-14T14:19:10.543Z,41.38
2022-08-14T14:21:41.965Z,41.56
2022-08-14T14:24:16.453Z,41.37
2022-08-14T14:26:57.570Z,41.47
2022-08-14T14:29:46.102Z,41.87
2022-08-14T14:32:31.258Z,41.84
2022-08-14T14:35:05.964Z,41.19
2022-08-14T14:37:37.907Z,42.05
2022-08-14T14:40:50.339Z,43.13
2022-08-14T14:43:15.500Z,43.44
2022-08-14T14:45:47.113Z,43.40
2022-08-14T14:48:18.818Z,43.17
2022-08-14T14:50:53.279Z,42.54
2022-08-14T14:53:23.095Z,42.65
2022-08-14T14:56:46.777Z,42.08
2022-08-14T14:58:48.681Z,41.68
2022-08-14T15:01:23.621Z,41.72
2022-08-14T15:03:54.228Z,41.50
2022-08-14T15:06:30.211Z,40.75
2022-08-14T15:09:04.902Z,40.98
2022-08-14T15:11:45.785Z,41.03
2022-08-14T15:14:55.028Z,41.01
2022-08-14T15:17:06.596Z,40.34
2022-08-14T15:19:36.284Z,40.33
2022-08-14T15:22:06.584Z,40.39
2022-08-14T15:24:36.709Z,40.68
2022-08-14T15:27:11.363Z,41.07
2022-08-14T15:29:43.049Z,41.41
2022-08-14T15:32:12.497Z,41.61
2022-08-14T15:34:51.721Z,41.95
2022-08-14T15:37:23.978Z,41.87
2022-08-14T15:39:53.393Z,42.54
2022-08-14T15:42:25.217Z,42.67
2022-08-14T15:44:57.492Z,43.02
2022-08-14T15:47:30.721Z,43.20
2022-08-14T15:50:01.812Z,43.12
2022-08-14T15:52:35.156Z,43.41
2022-08-14T15:55:06.889Z,43.32
2022-08-14T15:57:38.746Z,43.35
2022-08-14T16:00:43.355Z,43.21
2022-08-14T16:03:16.733Z,43.25
2022-08-14T16:05:46.458Z,42.87
2022-08-14T16:08:26.813Z,42.92
2022-08-14T16:10:59.189Z,42.21
2022-08-14T16:13:40.516Z,41.81
2022-08-14T16:16:50.461Z,41.08
2022-08-14T16:22:02.752Z,40.14
2022-08-14T16:25:02.788Z,39.50
2022-08-14T16:27:39.157Z,39.57
2022-08-14T16:30:20.629Z,39.96
2022-08-14T16:32:56.936Z,40.93
2022-08-14T16:35:42.172Z,41.11
2022-08-14T16:38:29.351Z,41.30
2022-08-14T16:40:23.757Z,40.73
2022-08-14T16:41:27.647Z,41.88
2022-08-14T16:44:02.769Z,41.79
2022-08-14T16:46:42.871Z,43.03
2022-08-14T16:49:19.217Z,43.74
2022-08-14T16:51:52.618Z,47.93
2022-08-14T16:54:35.204Z,51.52
2022-08-14T16:57:22.585Z,58.46
2022-08-14T16:59:57.615Z,63.94
2022-08-14T17:02:39.993Z,67.92
2022-08-14T17:05:20.808Z,68.95
2022-08-14T17:08:33.278Z,71.77
2022-08-14T17:11:11.061Z,73.18
2022-08-14T17:13:59.896Z,79.09
2022-08-14T17:16:37.630Z,77.90
2022-08-14T17:19:13.772Z,79.11
2022-08-14T17:21:47.227Z,77.08
2022-08-14T17:24:56.884Z,76.13
2022-08-14T17:27:10.334Z,75.72
2022-08-14T17:32:56.735Z,75.36
2022-08-14T17:35:57.339Z,75.50
2022-08-14T17:38:39.549Z,75.38
2022-08-14T17:41:27.107Z,76.32
2022-08-14T17:46:43.309Z,77.06
2022-08-14T17:49:17.990Z,76.89
2022-08-14T17:52:17.525Z,76.77
2022-08-14T17:54:52.919Z,77.07
2022-08-14T17:57:30.410Z,76.99
2022-08-14T18:00:05.991Z,79.17
2022-08-14T18:02:36.596Z,79.07
2022-08-14T18:05:11.047Z,80.60
2022-08-14T18:08:00.378Z,80.28
2022-08-14T18:10:54.940Z,80.56
2022-08-14T18:13:51.689Z,79.88
2022-08-14T18:16:19.727Z,80.23
2022-08-14T18:18:55.998Z,80.55
2022-08-14T18:21:56.219Z,81.04
2022-08-14T18:24:29.833Z,82.35
2022-08-14T18:27:09.046Z,82.24
2022-08-14T18:29:54.832Z,82.61
2022-08-14T18:32:58.232Z,82.76
2022-08-14T18:35:58.637Z,82.85
2022-08-14T18:40:03.063Z,82.48
2022-08-14T18:43:03.955Z,82.56
2022-08-14T18:47:00.069Z,83.34
2022-08-14T18:49:42.796Z,84.22
2022-08-14T18:56:29.676Z,86.15
2022-08-14T18:59:47.207Z,87.20
2022-08-14T19:07:23.040Z,86.54
2022-08-14T19:09:58.954Z,86.87
2022-08-14T19:13:12.988Z,87.87
2022-08-14T19:15:44.439Z,88.51
2022-08-14T19:18:28.047Z,88.80
2022-08-14T19:21:13.351Z,89.19
2022-08-14T19:23:44.784Z,89.59
2022-08-14T19:26:36.597Z,89.92
2022-08-14T19:29:26.221Z,89.51
2022-08-14T19:32:07.791Z,89.71
2022-08-14T19:34:52.228Z,89.82
2022-08-14T19:37:48.478Z,92.19
2022-08-14T19:40:33.880Z,94.40
2022-08-14T19:43:09.115Z,93.64
2022-08-14T19:45:40.774Z,92.95
2022-08-14T19:48:15.842Z,93.42
2022-08-14T19:50:47.084Z,93.55
2022-08-14T19:53:18.406Z,95.96
2022-08-14T19:56:01.496Z,96.45
2022-08-14T19:58:55.361Z,96.18
2022-08-14T20:01:37.629Z,95.69
2022-08-14T20:04:45.251Z,95.78
2022-08-14T20:07:00.298Z,95.72
2022-08-14T20:11:06.964Z,95.71
2022-08-14T20:12:34.905Z,96.13
2022-08-14T20:15:15.479Z,95.85
2022-08-14T20:17:53.467Z,95.86
2022-08-14T20:20:32.449Z,97.13
2022-08-14T20:23:10.775Z,96.85
2022-08-14T20:26:10.366Z,96.37
2022-08-14T20:28:57.940Z,98.51
2022-08-14T20:32:07.053Z,97.78
2022-08-14T20:34:50.985Z,97.53
2022-08-14T20:37:22.728Z,98.61
2022-08-14T20:39:54.774Z,99.62
2022-08-14T20:42:43.649Z,99.25
2022-08-14T20:45:24.729Z,99.43
2022-08-14T20:48:01.137Z,99.92
2022-08-14T20:50:32.399Z,100.00
2022-08-14T20:53:05.666Z,100.00
2022-08-14T20:55:45.285Z,100.00
2022-08-14T20:58:38.492Z,100.00
2022-08-14T21:01:35.996Z,100.00
2022-08-14T21:04:32.656Z,100.00
2022-08-14T21:07:26.215Z,100.00
2022-08-14T21:10:33.442Z,100.00
2022-08-14T21:13:27.221Z,100.00
2022-08-14T21:15:57.588Z,100.00
2022-08-14T21:18:32.402Z,100.00
2022-08-14T21:21:07.672Z,100.00
2022-08-14T21:23:58.038Z,100.00
2022-08-14T21:26:52.657Z,100.00
2022-08-14T21:29:31.470Z,100.00
2022-08-14T21:32:02.003Z,100.00
2022-08-14T21:34:55.016Z,100.00
2022-08-14T21:37:24.661Z,100.00
2022-08-14T21:40:00.587Z,100.00
2022-08-14T21:42:29.791Z,100.00
2022-08-14T21:44:58.713Z,100.00
2022-08-14T21:47:27.815Z,100.00
2022-08-14T21:50:00.261Z,100.00
2022-08-14T21:52:52.225Z,100.00
2022-08-14T21:55:23.620Z,100.00
2022-08-14T21:58:45.993Z,100.00
2022-08-14T22:00:43.334Z,100.00
2022-08-14T22:03:19.554Z,100.00
2022-08-14T22:05:57.114Z,100.00
2022-08-14T22:08:27.314Z,100.00
2022-08-14T22:10:57.528Z,100.00
2022-08-14T22:13:32.157Z,100.00
2022-08-14T22:16:02.620Z,100.00
2022-08-14T22:18:32.372Z,100.00
2022-08-14T22:21:05.779Z,100.00
2022-08-14T22:23:37.131Z,100.00
2022-08-14T22:26:07.870Z,100.00
2022-08-14T22:28:38.434Z,100.00
2022-08-14T22:31:23.116Z,100.00
2022-08-14T22:33:57.839Z,100.00
2022-08-14T22:36:47.223Z,100.00
2022-08-14T22:39:17.213Z,100.00
2022-08-14T22:41:56.075Z,100.00
2022-08-14T22:44:29.211Z,100.00
2022-08-14T22:46:58.930Z,100.00
2022-08-14T22:50:32.357Z,100.00
2022-08-14T22:52:32.465Z,100.00
2022-08-14T22:55:06.006Z,100.00
2022-08-14T22:57:37.126Z,100.00
2022-08-14T23:00:16.325Z,100.00
2022-08-14T23:02:46.733Z,100.00
2022-08-14T23:05:16.126Z,100.00
2022-08-14T23:08:44.103Z,100.00
2022-08-14T23:10:35.960Z,100.00
2022-08-14T23:13:08.545Z,100.00
2022-08-14T23:15:38.433Z,100.00
2022-08-14T23:18:13.122Z,100.00
2022-08-14T23:21:35.882Z,100.00
2022-08-14T23:24:17.370Z,100.00
2022-08-14T23:26:57.980Z,100.00
2022-08-14T23:29:27.190Z,100.00
2022-08-14T23:32:00.482Z,100.00
2022-08-14T23:34:30.107Z,100.00
2022-08-14T23:37:03.812Z,100.00
2022-08-14T23:39:35.439Z,100.00
2022-08-14T23:42:11.614Z,100.00
2022-08-14T23:44:45.751Z,100.00
2022-08-14T23:47:26.874Z,100.00
2022-08-14T23:50:03.601Z,100.00
2022-08-14T23:52:56.203Z,100.00
2022-08-14T23:55:34.747Z,100.00
2022-08-14T23:58:03.925Z,100.00
